createdAt,value
2023-02-28T00:01:33.339Z,8.30
2023-02-28T00:04:00.796Z,8.63
2023-02-28T00:06:28.317Z,11.02
2023-02-28T00:08:55.569Z,9.00
2023-02-28T00:11:22.872Z,9.38
2023-02-28T00:13:50.321Z,9.32
2023-02-28T00:16:23.064Z,9.13
2023-02-28T00:18:51.167Z,11.73
2023-02-28T00:21:19.402Z,9.48
2023-02-28T00:23:46.487Z,11.70
2023-02-28T00:26:13.638Z,10.95
2023-02-28T00:28:40.856Z,8.73
2023-02-28T00:31:07.725Z,11.68
2023-02-28T00:33:35.254Z,9.50
2023-02-28T00:36:04.890Z,10.32
2023-02-28T00:38:32.402Z,10.30
2023-02-28T00:40:59.880Z,10.05
2023-02-28T00:43:26.728Z,10.55
2023-02-28T00:45:54.065Z,8.57
2023-02-28T00:48:20.962Z,10.10
2023-02-28T00:50:50.916Z,10.48
2023-02-28T00:53:18.200Z,8.65
2023-02-28T00:55:45.413Z,14.10
2023-02-28T00:58:12.226Z,9.68
2023-02-28T01:00:39.428Z,9.63
2023-02-28T01:03:06.286Z,9.27
2023-02-28T01:05:33.509Z,9.73
2023-02-28T01:08:00.881Z,10.57
2023-02-28T01:10:32.338Z,11.45
2023-02-28T01:12:59.191Z,11.05
2023-02-28T01:15:26.479Z,7.97
2023-02-28T01:17:53.782Z,10.50
2023-02-28T01:20:20.774Z,8.73
2023-02-28T01:22:48.024Z,15.13
2023-02-28T01:25:15.270Z,10.95
2023-02-28T01:27:42.257Z,10.48
2023-02-28T01:30:10.236Z,12.27
2023-02-28T01:32:37.935Z,11.98
2023-02-28T01:35:05.138Z,10.95
2023-02-28T01:37:32.132Z,10.73
2023-02-28T01:39:59.583Z,10.32
2023-02-28T01:42:26.874Z,11.02
2023-02-28T01:45:01.272Z,10.85
2023-02-28T01:47:41.889Z,9.40
2023-02-28T01:50:14.534Z,11.65
2023-02-28T01:52:42.990Z,13.55
2023-02-28T01:55:13.153Z,11.02
2023-02-28T01:57:51.719Z,12.18
2023-02-28T02:00:21.885Z,11.75
2023-02-28T02:02:52.068Z,16.35
2023-02-28T02:05:22.492Z,16.67
2023-02-28T02:07:52.542Z,22.63
2023-02-28T02:10:19.813Z,21.27
2023-02-28T02:13:12.642Z,24.35
2023-02-28T02:16:07.054Z,28.25
2023-02-28T02:18:38.595Z,29.85
2023-02-28T02:21:30.737Z,26.73
2023-02-28T02:24:07.097Z,33.00
2023-02-28T02:26:51.901Z,31.25
2023-02-28T02:29:36.865Z,35.25
2023-02-28T02:32:22.476Z,29.85
2023-02-28T02:35:07.219Z,21.95
2023-02-28T02:38:00.201Z,28.73
2023-02-28T02:40:36.618Z,22.92
2023-02-28T02:43:39.379Z,29.80
2023-02-28T02:46:16.475Z,28.55
2023-02-28T02:48:46.295Z,27.95
2023-02-28T02:51:17.794Z,22.60
2023-02-28T02:53:51.004Z,22.33
2023-02-28T02:56:24.967Z,22.80
2023-02-28T02:58:54.714Z,22.55
2023-02-28T03:01:33.311Z,26.70
2023-02-28T03:04:08.635Z,25.98
2023-02-28T03:06:36.432Z,26.70
2023-02-28T03:09:03.780Z,25.95
2023-02-28T03:11:31.748Z,21.98
2023-02-28T03:13:59.196Z,21.42
2023-02-28T03:16:47.993Z,21.98
2023-02-28T03:19:15.222Z,27.83
2023-02-28T03:21:54.454Z,17.95
2023-02-28T03:24:32.963Z,22.95
2023-02-28T03:27:08.298Z,19.92
2023-02-28T03:29:40.274Z,19.48
2023-02-28T03:32:07.646Z,22.65
2023-02-28T03:34:38.972Z,18.33
2023-02-28T03:37:13.463Z,18.33
2023-02-28T03:40:13.820Z,22.98
2023-02-28T03:42:44.609Z,17.23
2023-02-28T03:45:17.504Z,21.95
2023-02-28T03:48:02.127Z,15.68
2023-02-28T03:50:33.162Z,20.65
2023-02-28T03:53:23.455Z,19.10
2023-02-28T03:56:04.822Z,17.90
2023-02-28T03:58:43.577Z,16.10
2023-02-28T04:01:15.873Z,18.80
2023-02-28T04:03:43.136Z,19.42
2023-02-28T04:06:21.943Z,16.13
2023-02-28T04:08:49.309Z,15.38
2023-02-28T04:11:19.685Z,15.23
2023-02-28T04:13:47.597Z,16.05
2023-02-28T04:16:24.534Z,20.13
2023-02-28T04:19:03.937Z,19.30
2023-02-28T04:21:36.404Z,21.52
2023-02-28T04:24:04.010Z,20.10
2023-02-28T04:26:36.891Z,31.70
2023-02-28T04:29:06.205Z,36.55
2023-02-28T04:31:33.390Z,31.55
2023-02-28T04:34:01.716Z,28.20
2023-02-28T04:36:29.073Z,22.50
2023-02-28T04:38:56.041Z,22.67
2023-02-28T04:41:23.843Z,20.27
2023-02-28T04:43:53.488Z,19.15
2023-02-28T04:46:21.892Z,19.23
2023-02-28T04:48:49.228Z,22.38
2023-02-28T04:51:19.674Z,19.45
2023-02-28T04:53:47.279Z,22.88
2023-02-28T04:56:17.454Z,25.35
2023-02-28T04:58:45.065Z,23.58
2023-02-28T05:01:23.551Z,21.95
2023-02-28T05:03:51.040Z,20.38
2023-02-28T05:06:18.793Z,27.63
2023-02-28T05:08:45.749Z,22.30
2023-02-28T05:11:19.332Z,24.27
2023-02-28T05:13:46.579Z,19.40
2023-02-28T05:16:13.767Z,24.42
2023-02-28T05:18:41.306Z,24.92
2023-02-28T05:21:25.342Z,24.42
2023-02-28T05:23:52.891Z,19.35
2023-02-28T05:26:20.038Z,20.48
2023-02-28T05:28:47.241Z,20.48
2023-02-28T05:31:14.595Z,29.63
2023-02-28T05:33:41.866Z,22.58
2023-02-28T05:36:09.297Z,23.38
2023-02-28T05:38:38.801Z,22.52
2023-02-28T05:41:12.502Z,20.70
2023-02-28T05:43:39.899Z,26.27
2023-02-28T05:46:11.933Z,21.45
2023-02-28T05:48:40.239Z,21.97
2023-02-28T05:51:08.345Z,21.95
2023-02-28T05:53:35.855Z,22.75
2023-02-28T05:56:03.917Z,28.02
2023-02-28T05:58:32.150Z,23.00
2023-02-28T06:01:00.774Z,21.48
2023-02-28T06:03:28.610Z,20.35
2023-02-28T06:05:55.476Z,16.90
2023-02-28T06:08:22.573Z,18.05
2023-02-28T06:10:49.469Z,36.97
2023-02-28T06:13:16.389Z,22.52
2023-02-28T06:15:43.685Z,23.38
2023-02-28T06:18:10.545Z,22.85
2023-02-28T06:20:37.486Z,21.67
2023-02-28T06:23:04.530Z,18.67
2023-02-28T06:25:31.472Z,23.67
2023-02-28T06:27:58.395Z,17.15
2023-02-28T06:30:28.032Z,26.42
2023-02-28T06:32:55.773Z,23.00
2023-02-28T06:35:23.363Z,16.52
2023-02-28T06:37:50.319Z,20.75
2023-02-28T06:40:17.762Z,22.88
2023-02-28T06:42:44.737Z,19.98
2023-02-28T06:45:12.614Z,24.27
2023-02-28T06:47:41.142Z,27.58
2023-02-28T06:50:12.494Z,22.23
2023-02-28T06:52:39.820Z,21.40
2023-02-28T06:55:08.402Z,23.60
2023-02-28T06:57:36.601Z,22.25
2023-02-28T07:00:10.388Z,25.17
2023-02-28T07:02:38.493Z,25.05
2023-02-28T07:05:06.816Z,20.55
2023-02-28T07:07:34.722Z,22.80
2023-02-28T07:10:01.860Z,22.77
2023-02-28T07:12:28.663Z,23.92
2023-02-28T07:14:57.030Z,16.30
2023-02-28T07:17:24.021Z,16.85
2023-02-28T07:19:50.894Z,16.17
2023-02-28T07:22:17.773Z,15.82
2023-02-28T07:24:44.669Z,20.40
2023-02-28T07:27:11.597Z,17.60
2023-02-28T07:29:39.369Z,14.98
2023-02-28T07:32:06.429Z,14.18
2023-02-28T07:34:33.345Z,15.88
2023-02-28T07:37:00.960Z,14.38
2023-02-28T07:39:27.876Z,17.33
2023-02-28T07:41:54.692Z,22.13
2023-02-28T07:44:22.218Z,21.13
2023-02-28T07:46:49.325Z,18.65
2023-02-28T07:49:16.259Z,70.60
2023-02-28T07:51:43.079Z,19.48
2023-02-28T07:54:09.924Z,14.57
2023-02-28T07:56:36.835Z,12.07
2023-02-28T07:59:04.054Z,16.42
2023-02-28T08:01:31.275Z,15.38
2023-02-28T08:03:58.422Z,11.70
2023-02-28T08:06:27.206Z,13.30
2023-02-28T08:08:54.610Z,16.20
2023-02-28T08:11:21.440Z,13.70
2023-02-28T08:13:48.351Z,14.45
2023-02-28T08:16:18.864Z,14.80
2023-02-28T08:18:45.960Z,19.08
2023-02-28T08:21:13.187Z,16.75
2023-02-28T08:23:40.174Z,16.67
2023-02-28T08:26:07.513Z,15.43
2023-02-28T08:28:35.292Z,19.88
2023-02-28T08:31:02.339Z,18.48
2023-02-28T08:33:29.339Z,17.30
2023-02-28T08:35:57.666Z,16.65
2023-02-28T08:38:24.865Z,18.98
2023-02-28T08:40:59.860Z,16.88
2023-02-28T08:43:26.801Z,15.25
2023-02-28T08:45:54.881Z,14.82
2023-02-28T08:48:21.880Z,15.02
2023-02-28T08:51:07.696Z,15.57
2023-02-28T08:53:34.943Z,39.20
2023-02-28T08:56:07.518Z,9.50
2023-02-28T08:58:35.484Z,15.43
2023-02-28T09:01:08.481Z,14.00
2023-02-28T09:03:35.500Z,14.15
2023-02-28T09:06:02.741Z,17.58
2023-02-28T09:08:31.602Z,15.18
2023-02-28T09:11:00.670Z,14.23
2023-02-28T09:13:29.383Z,12.98
2023-02-28T09:16:02.444Z,16.55
2023-02-28T09:18:29.507Z,17.15
2023-02-28T09:20:56.812Z,39.03
2023-02-28T09:23:23.944Z,14.32
2023-02-28T09:25:55.690Z,13.07
2023-02-28T09:28:23.776Z,48.33
2023-02-28T09:30:53.661Z,13.38
2023-02-28T09:33:24.276Z,14.70
2023-02-28T09:35:51.900Z,15.82
2023-02-28T09:38:19.512Z,16.35
2023-02-28T09:40:56.430Z,14.40
2023-02-28T09:43:27.161Z,14.90
2023-02-28T09:46:03.580Z,17.85
2023-02-28T09:48:38.934Z,13.10
2023-02-28T09:51:24.050Z,36.08
2023-02-28T09:53:56.632Z,14.45
2023-02-28T09:56:42.942Z,12.73
2023-02-28T09:59:19.236Z,13.52
2023-02-28T10:01:52.402Z,12.85
2023-02-28T10:07:26.369Z,14.80
2023-02-28T10:09:57.707Z,15.38
2023-02-28T10:12:26.178Z,20.88
2023-02-28T10:14:55.298Z,18.13
2023-02-28T10:17:29.069Z,14.60
2023-02-28T10:20:14.161Z,16.65
2023-02-28T10:23:08.459Z,18.38
2023-02-28T10:25:37.841Z,16.02
2023-02-28T10:28:14.249Z,14.20
2023-02-28T10:30:48.797Z,14.23
2023-02-28T10:33:30.215Z,15.95
2023-02-28T10:35:57.110Z,14.98
2023-02-28T10:38:26.784Z,17.00
2023-02-28T10:41:08.802Z,13.13
2023-02-28T10:43:36.478Z,12.65
2023-02-28T10:46:11.623Z,22.42
2023-02-28T10:48:49.429Z,14.70
2023-02-28T10:51:19.225Z,13.27
2023-02-28T10:54:06.667Z,18.35
2023-02-28T10:56:34.495Z,20.33
2023-02-28T10:59:29.495Z,15.70
2023-02-28T11:01:57.207Z,13.07
2023-02-28T11:04:24.077Z,12.95
2023-02-28T11:07:19.333Z,11.70
2023-02-28T11:09:50.449Z,16.90
2023-02-28T11:12:24.953Z,28.85
2023-02-28T11:14:59.104Z,15.75
2023-02-28T11:17:30.916Z,50.17
2023-02-28T11:20:04.310Z,19.30
2023-02-28T11:22:40.085Z,15.02
2023-02-28T11:25:39.324Z,14.95
2023-02-28T11:28:26.507Z,13.77
2023-02-28T11:31:14.924Z,14.60
2023-02-28T11:33:51.378Z,12.45
2023-02-28T11:36:27.129Z,16.35
2023-02-28T11:39:04.108Z,21.63
2023-02-28T11:42:12.670Z,14.20
2023-02-28T11:44:45.461Z,19.70
2023-02-28T11:47:16.749Z,15.15
2023-02-28T11:50:08.585Z,13.65
2023-02-28T11:52:38.424Z,12.68
2023-02-28T11:55:05.175Z,12.77
2023-02-28T11:58:09.594Z,13.00
2023-02-28T12:01:04.076Z,15.73
2023-02-28T12:03:44.990Z,16.15
2023-02-28T12:06:48.988Z,13.27
2023-02-28T12:09:39.929Z,16.70
2023-02-28T12:12:25.590Z,13.32
2023-02-28T12:15:21.001Z,14.85
2023-02-28T12:18:02.249Z,12.52
2023-02-28T12:20:42.207Z,14.57
2023-02-28T12:23:30.005Z,13.65
2023-02-28T12:26:32.181Z,17.92
2023-02-28T12:29:11.577Z,14.73
2023-02-28T12:31:46.293Z,12.90
2023-02-28T12:34:24.142Z,15.10
2023-02-28T12:36:54.959Z,14.52
2023-02-28T12:39:41.725Z,13.85
2023-02-28T12:44:53.497Z,14.15
2023-02-28T12:47:20.448Z,14.45
2023-02-28T12:50:12.238Z,13.82
2023-02-28T12:53:01.454Z,12.90
2023-02-28T12:55:57.951Z,14.32
2023-02-28T12:58:38.965Z,15.60
2023-02-28T13:01:30.513Z,11.15
2023-02-28T13:04:25.006Z,17.35
2023-02-28T13:07:36.254Z,14.73
2023-02-28T13:10:07.943Z,17.88
2023-02-28T13:12:35.935Z,18.25
2023-02-28T13:15:25.360Z,14.32
2023-02-28T13:17:56.029Z,13.50
2023-02-28T13:20:49.249Z,14.38
2023-02-28T13:23:53.359Z,13.32
2023-02-28T13:26:20.804Z,25.55
2023-02-28T13:28:56.405Z,14.32
2023-02-28T13:31:23.349Z,12.65
2023-02-28T13:33:50.680Z,18.98
2023-02-28T13:36:20.662Z,16.20
2023-02-28T13:38:56.507Z,25.20
2023-02-28T13:41:47.103Z,18.40
2023-02-28T13:44:24.346Z,15.70
2023-02-28T13:46:51.953Z,16.58
2023-02-28T13:49:29.057Z,13.23
2023-02-28T13:51:58.633Z,15.82
2023-02-28T13:54:43.784Z,17.00
2023-02-28T13:57:12.023Z,16.80
2023-02-28T13:59:46.856Z,15.50
2023-02-28T14:02:32.146Z,19.77
2023-02-28T14:05:26.674Z,14.48
2023-02-28T14:07:57.033Z,16.25
2023-02-28T14:10:33.691Z,15.23
2023-02-28T14:13:03.543Z,18.00
2023-02-28T14:15:43.767Z,17.50
2023-02-28T14:18:35.605Z,17.30
2023-02-28T14:21:27.375Z,17.98
2023-02-28T14:24:09.335Z,25.08
2023-02-28T14:26:58.093Z,15.98
2023-02-28T14:29:36.830Z,16.33
2023-02-28T14:32:05.411Z,29.70
2023-02-28T14:34:41.028Z,21.70
2023-02-28T14:37:17.500Z,17.23
2023-02-28T14:39:45.510Z,15.82
2023-02-28T14:42:36.765Z,18.00
2023-02-28T14:45:04.245Z,17.80
2023-02-28T14:47:36.431Z,20.40
2023-02-28T14:50:05.673Z,14.88
2023-02-28T14:52:34.205Z,16.63
2023-02-28T14:55:16.545Z,16.92
2023-02-28T14:57:53.192Z,16.55
2023-02-28T15:00:29.214Z,16.27
2023-02-28T15:02:57.756Z,17.27
2023-02-28T15:05:25.100Z,17.65
2023-02-28T15:08:13.287Z,20.83
2023-02-28T15:10:43.661Z,19.40
2023-02-28T15:13:15.730Z,18.27
2023-02-28T15:16:02.303Z,19.55
2023-02-28T15:18:32.755Z,19.08
2023-02-28T15:21:10.547Z,22.73
2023-02-28T15:23:38.437Z,20.73
2023-02-28T15:26:06.303Z,19.30
2023-02-28T15:28:33.433Z,21.33
2023-02-28T15:31:03.030Z,22.38
2023-02-28T15:33:34.659Z,19.58
2023-02-28T15:36:13.117Z,17.05
2023-02-28T15:38:40.574Z,21.55
2023-02-28T15:41:29.024Z,21.85
2023-02-28T15:44:20.788Z,20.95
2023-02-28T15:46:59.517Z,21.63
2023-02-28T15:49:26.996Z,26.83
2023-02-28T15:51:56.715Z,25.95
2023-02-28T15:54:36.052Z,28.70
2023-02-28T15:57:09.576Z,38.13
2023-02-28T15:59:37.566Z,32.88
2023-02-28T16:02:20.781Z,30.70
2023-02-28T16:05:01.127Z,33.75
2023-02-28T16:07:29.009Z,36.38
2023-02-28T16:09:56.244Z,25.17
2023-02-28T16:12:33.539Z,36.97
2023-02-28T16:15:05.716Z,27.83
2023-02-28T16:17:38.717Z,29.10
2023-02-28T16:20:16.127Z,30.83
2023-02-28T16:22:43.830Z,34.22
2023-02-28T16:25:15.545Z,28.38
2023-02-28T16:27:44.117Z,36.38
2023-02-28T16:30:19.530Z,32.67
2023-02-28T16:32:46.363Z,34.50
2023-02-28T16:35:15.063Z,30.00
2023-02-28T16:37:42.655Z,33.78
2023-02-28T16:40:16.255Z,34.22
2023-02-28T16:42:43.682Z,42.80
2023-02-28T16:45:23.230Z,38.47
2023-02-28T16:47:50.120Z,42.17
2023-02-28T16:50:22.506Z,49.85
2023-02-28T16:52:50.774Z,40.63
2023-02-28T16:55:17.582Z,41.58
2023-02-28T16:57:45.059Z,43.33
2023-02-28T17:00:14.936Z,41.15
2023-02-28T17:02:43.195Z,44.00
2023-02-28T17:05:14.004Z,42.03
2023-02-28T17:07:41.728Z,42.67
2023-02-28T17:10:27.640Z,47.30
2023-02-28T17:12:58.368Z,55.72
2023-02-28T17:15:32.057Z,47.33
2023-02-28T17:17:59.414Z,66.03
2023-02-28T17:20:27.563Z,90.60
2023-02-28T17:22:55.428Z,86.15
2023-02-28T17:25:22.828Z,102.03
2023-02-28T17:27:50.183Z,99.70
2023-02-28T17:30:18.665Z,90.82
2023-02-28T17:32:45.650Z,83.97
2023-02-28T17:35:12.914Z,83.38
2023-02-28T17:37:39.938Z,87.55
2023-02-28T17:40:15.996Z,89.53
2023-02-28T17:42:43.523Z,85.13
2023-02-28T17:45:11.007Z,76.85
2023-02-28T17:47:38.407Z,106.30
2023-02-28T17:50:06.071Z,101.30
2023-02-28T17:52:37.664Z,115.63
2023-02-28T17:55:05.463Z,90.95
2023-02-28T17:57:32.756Z,125.90
2023-02-28T17:59:59.977Z,105.63
2023-02-28T18:02:28.756Z,130.23
2023-02-28T18:04:56.045Z,119.20
2023-02-28T18:07:24.661Z,113.13
2023-02-28T18:09:52.189Z,116.57
2023-02-28T18:12:19.103Z,130.20
2023-02-28T18:14:48.711Z,121.47
2023-02-28T18:17:16.032Z,115.45
2023-02-28T18:19:42.902Z,128.63
2023-02-28T18:22:10.109Z,141.05
2023-02-28T18:24:37.224Z,141.05
2023-02-28T18:27:04.437Z,144.48
2023-02-28T18:29:32.676Z,154.38
2023-02-28T18:32:02.371Z,156.50
2023-02-28T18:34:30.674Z,169.93
2023-02-28T18:36:57.983Z,181.68
2023-02-28T18:39:25.236Z,152.25
2023-02-28T18:41:52.446Z,148.20
2023-02-28T18:44:20.889Z,147.77
2023-02-28T18:46:49.824Z,158.18
2023-02-28T18:49:17.496Z,177.15
2023-02-28T18:51:45.547Z,210.93
2023-02-28T18:54:16.768Z,206.70
2023-02-28T18:56:44.081Z,194.65
2023-02-28T18:59:11.741Z,194.73
2023-02-28T19:01:39.868Z,204.52
2023-02-28T19:04:06.841Z,184.70
2023-02-28T19:06:34.391Z,166.95
2023-02-28T19:09:04.145Z,180.32
2023-02-28T19:11:31.870Z,185.75
2023-02-28T19:13:59.285Z,184.05
2023-02-28T19:16:28.205Z,170.23
2023-02-28T19:18:55.739Z,170.93
2023-02-28T19:21:23.948Z,144.93
2023-02-28T19:23:54.202Z,154.27
2023-02-28T19:26:24.067Z,145.07
2023-02-28T19:28:51.178Z,143.15
2023-02-28T19:31:23.825Z,141.68
2023-02-28T19:33:53.030Z,145.90
2023-02-28T19:36:20.613Z,153.02
2023-02-28T19:38:47.875Z,131.65
2023-02-28T19:41:16.457Z,137.95
2023-02-28T19:43:44.376Z,123.93
2023-02-28T19:46:12.452Z,131.60
2023-02-28T19:48:39.709Z,199.00
2023-02-28T19:51:12.665Z,125.43
2023-02-28T19:56:08.593Z,127.55
2023-02-28T19:58:36.127Z,129.88
2023-02-28T20:01:09.152Z,123.82
2023-02-28T20:06:07.323Z,134.02
2023-02-28T20:08:34.767Z,121.75
2023-02-28T20:11:06.921Z,133.80
2023-02-28T20:13:34.585Z,138.33
2023-02-28T20:16:03.667Z,134.57
2023-02-28T20:18:32.464Z,146.30
2023-02-28T20:20:59.652Z,138.07
2023-02-28T20:23:27.040Z,142.70
2023-02-28T20:25:54.248Z,117.18
2023-02-28T20:28:21.213Z,107.10
2023-02-28T20:30:51.185Z,96.93
2023-02-28T20:33:19.493Z,87.15
2023-02-28T20:35:46.451Z,77.53
2023-02-28T20:38:13.701Z,74.70
2023-02-28T20:40:41.203Z,85.05
2023-02-28T20:43:10.680Z,93.13
2023-02-28T20:45:37.782Z,101.70
2023-02-28T20:48:04.777Z,109.57
2023-02-28T20:50:31.992Z,117.03
2023-02-28T20:52:59.192Z,109.25
2023-02-28T20:55:26.086Z,116.88
2023-02-28T20:57:54.205Z,138.23
2023-02-28T21:00:22.612Z,119.20
2023-02-28T21:02:49.589Z,106.55
2023-02-28T21:05:17.117Z,106.57
2023-02-28T21:07:44.657Z,109.30
2023-02-28T21:10:12.114Z,116.30
2023-02-28T21:12:39.312Z,122.88
2023-02-28T21:15:06.708Z,124.97
2023-02-28T21:17:33.918Z,115.60
2023-02-28T21:20:01.274Z,120.53
2023-02-28T21:22:28.576Z,103.75
2023-02-28T21:24:55.950Z,104.82
2023-02-28T21:27:23.305Z,128.15
2023-02-28T21:29:50.120Z,122.97
2023-02-28T21:32:17.098Z,127.10
2023-02-28T21:34:44.728Z,128.90
2023-02-28T21:37:11.809Z,106.93
2023-02-28T21:39:39.081Z,111.03
2023-02-28T21:42:06.313Z,118.55
2023-02-28T21:44:34.787Z,120.32
2023-02-28T21:47:02.538Z,135.25
2023-02-28T21:49:29.927Z,140.90
2023-02-28T21:51:57.710Z,139.10
2023-02-28T21:54:25.044Z,129.65
2023-02-28T21:56:54.782Z,114.35
2023-02-28T21:59:22.539Z,109.53
2023-02-28T22:01:51.537Z,103.85
2023-02-28T22:04:22.161Z,103.47
2023-02-28T22:06:54.831Z,94.93
2023-02-28T22:09:22.152Z,91.65
2023-02-28T22:11:49.322Z,103.22
2023-02-28T22:14:16.692Z,91.97
2023-02-28T22:16:54.415Z,94.55
2023-02-28T22:19:22.654Z,105.35
2023-02-28T22:21:50.313Z,83.07
2023-02-28T22:24:20.615Z,72.38
2023-02-28T22:26:49.357Z,71.35
2023-02-28T22:29:16.696Z,75.20
2023-02-28T22:31:43.866Z,69.47
2023-02-28T22:34:11.994Z,78.85
2023-02-28T22:36:41.236Z,100.18
2023-02-28T22:39:08.457Z,82.53
2023-02-28T22:41:36.154Z,84.88
2023-02-28T22:44:04.775Z,86.30
2023-02-28T22:46:33.486Z,78.93
2023-02-28T22:49:03.948Z,76.43
2023-02-28T22:51:31.402Z,76.60
2023-02-28T22:53:58.848Z,66.53
2023-02-28T22:56:28.245Z,78.00
2023-02-28T22:58:57.546Z,67.70
2023-02-28T23:01:26.655Z,71.15
2023-02-28T23:03:54.450Z,71.60
2023-02-28T23:06:35.571Z,73.78
2023-02-28T23:09:06.278Z,68.78
2023-02-28T23:11:36.233Z,64.38
2023-02-28T23:14:03.877Z,68.15
2023-02-28T23:16:35.094Z,61.30
2023-02-28T23:19:04.556Z,54.00
2023-02-28T23:21:31.705Z,54.20
2023-02-28T23:23:59.113Z,48.35
2023-02-28T23:26:26.363Z,54.63
2023-02-28T23:28:53.179Z,52.72
2023-02-28T23:31:21.331Z,64.30
2023-02-28T23:33:48.653Z,65.93
2023-02-28T23:36:16.640Z,59.65
2023-02-28T23:38:47.590Z,61.45
2023-02-28T23:41:15.117Z,62.88
2023-02-28T23:43:42.736Z,61.47
2023-02-28T23:46:11.706Z,57.42
2023-02-28T23:48:39.761Z,63.85
2023-02-28T23:51:17.203Z,65.03
2023-02-28T23:53:49.493Z,70.80
2023-02-28T23:56:19.849Z,74.57
2023-02-28T23:58:47.432Z,69.18
